sensor_id;sensor_type;location;lat;lon;timestamp;P1;durP1;ratioP1;P2;durP2;ratioP2
13708;SDS011;54933;51.908;7.730;2023-05-07T00:01:12;0.57;;;0.57;;
13708;SDS011;54933;51.908;7.730;2023-05-07T00:03:37;1.50;;;1.37;;
13708;SDS011;54933;51.908;7.730;2023-05-07T00:06:03;2.97;;;0.80;;
13708;SDS011;54933;51.908;7.730;2023-05-07T00:08:28;1.30;;;0.60;;
13708;SDS011;54933;51.908;7.730;2023-05-07T00:10:53;0.70;;;0.70;;
13708;SDS011;54933;51.908;7.730;2023-05-07T00:13:19;0.50;;;0.50;;
13708;SDS011;54933;51.908;7.730;2023-05-07T00:15:44;4.23;;;0.67;;
13708;SDS011;54933;51.908;7.730;2023-05-07T00:18:10;0.80;;;0.80;;
13708;SDS011;54933;51.908;7.730;2023-05-07T00:20:35;0.73;;;0.73;;
13708;SDS011;54933;51.908;7.730;2023-05-07T00:23:00;0.63;;;0.63;;
13708;SDS011;54933;51.908;7.730;2023-05-07T00:25:26;0.40;;;0.40;;
13708;SDS011;54933;51.908;7.730;2023-05-07T00:27:51;0.57;;;0.53;;
13708;SDS011;54933;51.908;7.730;2023-05-07T00:30:16;1.03;;;0.70;;
13708;SDS011;54933;51.908;7.730;2023-05-07T00:32:41;1.80;;;0.70;;
13708;SDS011;54933;51.908;7.730;2023-05-07T00:35:07;0.60;;;0.60;;
13708;SDS011;54933;51.908;7.730;2023-05-07T00:37:32;0.70;;;0.70;;
13708;SDS011;54933;51.908;7.730;2023-05-07T00:39:58;0.60;;;0.60;;
13708;SDS011;54933;51.908;7.730;2023-05-07T00:42:23;0.67;;;0.50;;
13708;SDS011;54933;51.908;7.730;2023-05-07T00:44:49;0.60;;;0.60;;
13708;SDS011;54933;51.908;7.730;2023-05-07T00:47:15;0.63;;;0.63;;
13708;SDS011;54933;51.908;7.730;2023-05-07T00:49:42;2.40;;;0.50;;
13708;SDS011;54933;51.908;7.730;2023-05-07T00:52:09;1.40;;;0.40;;
13708;SDS011;54933;51.908;7.730;2023-05-07T00:54:38;0.73;;;0.73;;
13708;SDS011;54933;51.908;7.730;2023-05-07T00:57:05;0.73;;;0.53;;
13708;SDS011;54933;51.908;7.730;2023-05-07T00:59:31;1.20;;;0.53;;
13708;SDS011;54933;51.908;7.730;2023-05-07T01:01:57;0.60;;;0.60;;
13708;SDS011;54933;51.908;7.730;2023-05-07T01:04:22;1.90;;;0.60;;
13708;SDS011;54933;51.908;7.730;2023-05-07T01:06:48;0.60;;;0.60;;
13708;SDS011;54933;51.908;7.730;2023-05-07T01:09:14;0.50;;;0.50;;
13708;SDS011;54933;51.908;7.730;2023-05-07T01:11:40;1.40;;;0.60;;
13708;SDS011;54933;51.908;7.730;2023-05-07T01:14:05;0.60;;;0.60;;
13708;SDS011;54933;51.908;7.730;2023-05-07T01:16:33;0.60;;;0.60;;
13708;SDS011;54933;51.908;7.730;2023-05-07T01:18:58;1.03;;;0.60;;
13708;SDS011;54933;51.908;7.730;2023-05-07T01:21:25;0.50;;;0.50;;
13708;SDS011;54933;51.908;7.730;2023-05-07T01:23:55;0.67;;;0.67;;
13708;SDS011;54933;51.908;7.730;2023-05-07T01:26:21;0.50;;;0.50;;
13708;SDS011;54933;51.908;7.730;2023-05-07T01:28:47;0.50;;;0.50;;
13708;SDS011;54933;51.908;7.730;2023-05-07T01:31:12;0.50;;;0.50;;
13708;SDS011;54933;51.908;7.730;2023-05-07T01:33:38;0.90;;;0.90;;
13708;SDS011;54933;51.908;7.730;2023-05-07T01:36:05;0.87;;;0.50;;
13708;SDS011;54933;51.908;7.730;2023-05-07T01:38:33;0.50;;;0.50;;
13708;SDS011;54933;51.908;7.730;2023-05-07T01:40:59;0.60;;;0.60;;
13708;SDS011;54933;51.908;7.730;2023-05-07T01:43:25;1.10;;;1.10;;
13708;SDS011;54933;51.908;7.730;2023-05-07T01:45:50;0.50;;;0.50;;
13708;SDS011;54933;51.908;7.730;2023-05-07T01:48:17;0.40;;;0.40;;
13708;SDS011;54933;51.908;7.730;2023-05-07T01:50:43;0.40;;;0.40;;
13708;SDS011;54933;51.908;7.730;2023-05-07T01:53:09;1.00;;;0.50;;
13708;SDS011;54933;51.908;7.730;2023-05-07T01:55:34;0.50;;;0.50;;
13708;SDS011;54933;51.908;7.730;2023-05-07T01:58:01;0.60;;;0.60;;
13708;SDS011;54933;51.908;7.730;2023-05-07T02:00:27;0.77;;;0.60;;
13708;SDS011;54933;51.908;7.730;2023-05-07T02:02:52;0.50;;;0.50;;
13708;SDS011;54933;51.908;7.730;2023-05-07T02:05:18;0.63;;;0.60;;
13708;SDS011;54933;51.908;7.730;2023-05-07T02:07:43;0.57;;;0.57;;
13708;SDS011;54933;51.908;7.730;2023-05-07T02:10:09;0.70;;;0.70;;
13708;SDS011;54933;51.908;7.730;2023-05-07T02:12:34;0.47;;;0.47;;
13708;SDS011;54933;51.908;7.730;2023-05-07T02:15:00;0.60;;;0.60;;
13708;SDS011;54933;51.908;7.730;2023-05-07T02:17:25;0.53;;;0.53;;
13708;SDS011;54933;51.908;7.730;2023-05-07T02:19:50;0.60;;;0.60;;
13708;SDS011;54933;51.908;7.730;2023-05-07T02:22:16;0.30;;;0.30;;
13708;SDS011;54933;51.908;7.730;2023-05-07T02:24:41;0.87;;;0.60;;
13708;SDS011;54933;51.908;7.730;2023-05-07T02:27:06;0.53;;;0.53;;
13708;SDS011;54933;51.908;7.730;2023-05-07T02:29:32;0.40;;;0.40;;
13708;SDS011;54933;51.908;7.730;2023-05-07T02:31:57;0.73;;;0.73;;
13708;SDS011;54933;51.908;7.730;2023-05-07T02:34:22;0.50;;;0.50;;
13708;SDS011;54933;51.908;7.730;2023-05-07T02:36:47;0.63;;;0.63;;
13708;SDS011;54933;51.908;7.730;2023-05-07T02:39:13;1.13;;;0.70;;
13708;SDS011;54933;51.908;7.730;2023-05-07T02:41:38;0.77;;;0.60;;
13708;SDS011;54933;51.908;7.730;2023-05-07T02:44:04;0.60;;;0.60;;
13708;SDS011;54933;51.908;7.730;2023-05-07T02:46:29;1.23;;;0.70;;
13708;SDS011;54933;51.908;7.730;2023-05-07T02:48:54;0.80;;;0.80;;
13708;SDS011;54933;51.908;7.730;2023-05-07T02:51:20;0.60;;;0.60;;
13708;SDS011;54933;51.908;7.730;2023-05-07T02:53:47;0.53;;;0.53;;
13708;SDS011;54933;51.908;7.730;2023-05-07T02:56:12;0.60;;;0.60;;
13708;SDS011;54933;51.908;7.730;2023-05-07T02:58:37;0.60;;;0.57;;
13708;SDS011;54933;51.908;7.730;2023-05-07T03:01:04;0.70;;;0.60;;
13708;SDS011;54933;51.908;7.730;2023-05-07T03:03:33;0.53;;;0.53;;
13708;SDS011;54933;51.908;7.730;2023-05-07T03:05:58;0.70;;;0.70;;
13708;SDS011;54933;51.908;7.730;2023-05-07T03:08:24;0.80;;;0.80;;
13708;SDS011;54933;51.908;7.730;2023-05-07T03:10:49;0.50;;;0.50;;
13708;SDS011;54933;51.908;7.730;2023-05-07T03:13:15;0.70;;;0.70;;
13708;SDS011;54933;51.908;7.730;2023-05-07T03:15:40;0.70;;;0.70;;
13708;SDS011;54933;51.908;7.730;2023-05-07T03:18:06;0.53;;;0.53;;
13708;SDS011;54933;51.908;7.730;2023-05-07T03:20:31;0.60;;;0.60;;
13708;SDS011;54933;51.908;7.730;2023-05-07T03:22:56;0.70;;;0.70;;
13708;SDS011;54933;51.908;7.730;2023-05-07T03:25:22;0.70;;;0.70;;
13708;SDS011;54933;51.908;7.730;2023-05-07T03:27:47;0.60;;;0.60;;
13708;SDS011;54933;51.908;7.730;2023-05-07T03:30:12;1.07;;;0.63;;
13708;SDS011;54933;51.908;7.730;2023-05-07T03:32:38;0.80;;;0.80;;
13708;SDS011;54933;51.908;7.730;2023-05-07T03:35:03;0.70;;;0.70;;
13708;SDS011;54933;51.908;7.730;2023-05-07T03:37:29;0.70;;;0.70;;
13708;SDS011;54933;51.908;7.730;2023-05-07T03:39:54;0.70;;;0.70;;
13708;SDS011;54933;51.908;7.730;2023-05-07T03:42:19;0.90;;;0.90;;
13708;SDS011;54933;51.908;7.730;2023-05-07T03:44:45;0.80;;;0.80;;
13708;SDS011;54933;51.908;7.730;2023-05-07T03:47:10;0.83;;;0.70;;
13708;SDS011;54933;51.908;7.730;2023-05-07T03:49:35;0.90;;;0.90;;
13708;SDS011;54933;51.908;7.730;2023-05-07T03:52:01;0.93;;;0.77;;
13708;SDS011;54933;51.908;7.730;2023-05-07T03:54:26;0.90;;;0.90;;
13708;SDS011;54933;51.908;7.730;2023-05-07T03:56:51;0.50;;;0.50;;
13708;SDS011;54933;51.908;7.730;2023-05-07T03:59:16;0.80;;;0.80;;
13708;SDS011;54933;51.908;7.730;2023-05-07T04:01:42;0.60;;;0.60;;
13708;SDS011;54933;51.908;7.730;2023-05-07T04:04:07;1.07;;;0.90;;
13708;SDS011;54933;51.908;7.730;2023-05-07T04:06:32;1.00;;;1.00;;
13708;SDS011;54933;51.908;7.730;2023-05-07T04:08:58;0.90;;;0.90;;
13708;SDS011;54933;51.908;7.730;2023-05-07T04:11:23;0.53;;;0.53;;
13708;SDS011;54933;51.908;7.730;2023-05-07T04:13:49;0.50;;;0.50;;
13708;SDS011;54933;51.908;7.730;2023-05-07T04:16:15;0.70;;;0.70;;
13708;SDS011;54933;51.908;7.730;2023-05-07T04:18:40;0.70;;;0.70;;
13708;SDS011;54933;51.908;7.730;2023-05-07T04:21:06;0.80;;;0.80;;
13708;SDS011;54933;51.908;7.730;2023-05-07T04:23:39;1.00;;;1.00;;
13708;SDS011;54933;51.908;7.730;2023-05-07T04:26:04;0.80;;;0.80;;
13708;SDS011;54933;51.908;7.730;2023-05-07T04:28:29;0.90;;;0.90;;
13708;SDS011;54933;51.908;7.730;2023-05-07T04:30:55;0.80;;;0.80;;
13708;SDS011;54933;51.908;7.730;2023-05-07T04:33:20;0.80;;;0.80;;
13708;SDS011;54933;51.908;7.730;2023-05-07T04:35:45;0.90;;;0.90;;
13708;SDS011;54933;51.908;7.730;2023-05-07T04:38:11;0.90;;;0.90;;
13708;SDS011;54933;51.908;7.730;2023-05-07T04:40:36;0.83;;;0.83;;
13708;SDS011;54933;51.908;7.730;2023-05-07T04:43:02;0.93;;;0.93;;
13708;SDS011;54933;51.908;7.730;2023-05-07T04:45:27;0.70;;;0.70;;
13708;SDS011;54933;51.908;7.730;2023-05-07T04:47:52;1.90;;;1.00;;
13708;SDS011;54933;51.908;7.730;2023-05-07T04:50:17;0.87;;;0.87;;
13708;SDS011;54933;51.908;7.730;2023-05-07T04:52:44;0.90;;;0.90;;
13708;SDS011;54933;51.908;7.730;2023-05-07T04:55:10;1.17;;;1.10;;
13708;SDS011;54933;51.908;7.730;2023-05-07T04:57:35;1.07;;;1.00;;
13708;SDS011;54933;51.908;7.730;2023-05-07T05:00:01;0.87;;;0.87;;
13708;SDS011;54933;51.908;7.730;2023-05-07T05:02:26;0.80;;;0.80;;
13708;SDS011;54933;51.908;7.730;2023-05-07T05:04:51;1.30;;;1.07;;
13708;SDS011;54933;51.908;7.730;2023-05-07T05:07:16;1.10;;;1.00;;
13708;SDS011;54933;51.908;7.730;2023-05-07T05:09:42;0.97;;;0.90;;
13708;SDS011;54933;51.908;7.730;2023-05-07T05:12:07;1.30;;;1.20;;
13708;SDS011;54933;51.908;7.730;2023-05-07T05:14:32;1.20;;;1.10;;
13708;SDS011;54933;51.908;7.730;2023-05-07T05:16:57;0.90;;;0.90;;
13708;SDS011;54933;51.908;7.730;2023-05-07T05:19:23;1.00;;;1.00;;
13708;SDS011;54933;51.908;7.730;2023-05-07T05:21:48;1.07;;;1.07;;
13708;SDS011;54933;51.908;7.730;2023-05-07T05:24:13;0.77;;;0.77;;
13708;SDS011;54933;51.908;7.730;2023-05-07T05:26:38;0.90;;;0.90;;
13708;SDS011;54933;51.908;7.730;2023-05-07T05:29:04;0.70;;;0.70;;
13708;SDS011;54933;51.908;7.730;2023-05-07T05:31:29;0.97;;;0.97;;
13708;SDS011;54933;51.908;7.730;2023-05-07T05:33:55;0.97;;;0.97;;
13708;SDS011;54933;51.908;7.730;2023-05-07T05:36:21;1.00;;;1.00;;
13708;SDS011;54933;51.908;7.730;2023-05-07T05:38:47;0.97;;;0.97;;
13708;SDS011;54933;51.908;7.730;2023-05-07T05:41:12;1.03;;;1.03;;
13708;SDS011;54933;51.908;7.730;2023-05-07T05:43:37;1.17;;;1.17;;
13708;SDS011;54933;51.908;7.730;2023-05-07T05:46:02;0.87;;;0.87;;
13708;SDS011;54933;51.908;7.730;2023-05-07T05:48:29;0.97;;;0.97;;
13708;SDS011;54933;51.908;7.730;2023-05-07T05:50:55;1.40;;;1.30;;
13708;SDS011;54933;51.908;7.730;2023-05-07T05:53:20;1.07;;;1.07;;
13708;SDS011;54933;51.908;7.730;2023-05-07T05:55:45;1.20;;;1.17;;
13708;SDS011;54933;51.908;7.730;2023-05-07T05:58:11;1.30;;;1.20;;
13708;SDS011;54933;51.908;7.730;2023-05-07T06:00:36;1.20;;;1.20;;
13708;SDS011;54933;51.908;7.730;2023-05-07T06:03:02;0.80;;;0.80;;
13708;SDS011;54933;51.908;7.730;2023-05-07T06:05:27;1.10;;;1.10;;
13708;SDS011;54933;51.908;7.730;2023-05-07T06:07:52;1.30;;;1.27;;
13708;SDS011;54933;51.908;7.730;2023-05-07T06:10:18;1.10;;;1.10;;
13708;SDS011;54933;51.908;7.730;2023-05-07T06:12:43;1.10;;;1.10;;
13708;SDS011;54933;51.908;7.730;2023-05-07T06:15:09;1.10;;;1.00;;
13708;SDS011;54933;51.908;7.730;2023-05-07T06:17:35;1.30;;;1.20;;
13708;SDS011;54933;51.908;7.730;2023-05-07T06:20:00;1.43;;;1.33;;
13708;SDS011;54933;51.908;7.730;2023-05-07T06:22:25;1.20;;;1.20;;
13708;SDS011;54933;51.908;7.730;2023-05-07T06:24:50;1.13;;;1.13;;
13708;SDS011;54933;51.908;7.730;2023-05-07T06:27:16;1.50;;;1.40;;
13708;SDS011;54933;51.908;7.730;2023-05-07T06:29:41;1.30;;;1.30;;
13708;SDS011;54933;51.908;7.730;2023-05-07T06:32:07;1.37;;;1.27;;
13708;SDS011;54933;51.908;7.730;2023-05-07T06:34:33;1.40;;;1.30;;
13708;SDS011;54933;51.908;7.730;2023-05-07T06:36:58;1.20;;;1.17;;
13708;SDS011;54933;51.908;7.730;2023-05-07T06:39:23;1.10;;;1.10;;
13708;SDS011;54933;51.908;7.730;2023-05-07T06:41:49;1.33;;;1.27;;
13708;SDS011;54933;51.908;7.730;2023-05-07T06:44:14;1.37;;;1.27;;
13708;SDS011;54933;51.908;7.730;2023-05-07T06:46:40;1.30;;;1.10;;
13708;SDS011;54933;51.908;7.730;2023-05-07T06:49:05;1.07;;;1.07;;
13708;SDS011;54933;51.908;7.730;2023-05-07T06:51:31;1.20;;;1.10;;
13708;SDS011;54933;51.908;7.730;2023-05-07T06:53:56;2.23;;;1.17;;
13708;SDS011;54933;51.908;7.730;2023-05-07T06:56:21;1.50;;;1.50;;
13708;SDS011;54933;51.908;7.730;2023-05-07T06:58:47;1.50;;;1.40;;
13708;SDS011;54933;51.908;7.730;2023-05-07T07:01:13;1.53;;;1.30;;
13708;SDS011;54933;51.908;7.730;2023-05-07T07:03:38;1.23;;;1.20;;
13708;SDS011;54933;51.908;7.730;2023-05-07T07:06:03;1.70;;;1.37;;
13708;SDS011;54933;51.908;7.730;2023-05-07T07:08:29;2.60;;;2.07;;
13708;SDS011;54933;51.908;7.730;2023-05-07T07:10:54;12.33;;;8.33;;
13708;SDS011;54933;51.908;7.730;2023-05-07T07:13:19;65.17;;;14.33;;
13708;SDS011;54933;51.908;7.730;2023-05-07T07:15:44;47.53;;;7.63;;
13708;SDS011;54933;51.908;7.730;2023-05-07T07:18:10;36.37;;;7.80;;
13708;SDS011;54933;51.908;7.730;2023-05-07T07:20:35;43.47;;;8.63;;
13708;SDS011;54933;51.908;7.730;2023-05-07T07:23:01;36.23;;;5.93;;
13708;SDS011;54933;51.908;7.730;2023-05-07T07:25:26;38.33;;;5.20;;
13708;SDS011;54933;51.908;7.730;2023-05-07T07:27:51;22.57;;;4.23;;
13708;SDS011;54933;51.908;7.730;2023-05-07T07:30:16;21.30;;;4.23;;
13708;SDS011;54933;51.908;7.730;2023-05-07T07:32:42;48.07;;;7.00;;
13708;SDS011;54933;51.908;7.730;2023-05-07T07:35:07;40.00;;;6.47;;
13708;SDS011;54933;51.908;7.730;2023-05-07T07:37:33;25.80;;;4.77;;
13708;SDS011;54933;51.908;7.730;2023-05-07T07:39:59;23.00;;;4.87;;
13708;SDS011;54933;51.908;7.730;2023-05-07T07:42:24;35.23;;;4.33;;
13708;SDS011;54933;51.908;7.730;2023-05-07T07:44:50;24.23;;;4.23;;
13708;SDS011;54933;51.908;7.730;2023-05-07T07:47:15;23.20;;;4.53;;
13708;SDS011;54933;51.908;7.730;2023-05-07T07:49:40;26.20;;;4.53;;
13708;SDS011;54933;51.908;7.730;2023-05-07T07:52:05;14.80;;;3.93;;
13708;SDS011;54933;51.908;7.730;2023-05-07T07:54:31;21.60;;;4.50;;
13708;SDS011;54933;51.908;7.730;2023-05-07T07:56:56;24.40;;;4.57;;
13708;SDS011;54933;51.908;7.730;2023-05-07T07:59:21;19.00;;;3.97;;
13708;SDS011;54933;51.908;7.730;2023-05-07T08:01:46;11.73;;;3.40;;
13708;SDS011;54933;51.908;7.730;2023-05-07T08:04:14;14.43;;;3.57;;
13708;SDS011;54933;51.908;7.730;2023-05-07T08:06:40;16.00;;;3.33;;
13708;SDS011;54933;51.908;7.730;2023-05-07T08:09:05;11.33;;;3.17;;
13708;SDS011;54933;51.908;7.730;2023-05-07T08:11:30;7.20;;;2.83;;
13708;SDS011;54933;51.908;7.730;2023-05-07T08:13:56;11.17;;;2.97;;
13708;SDS011;54933;51.908;7.730;2023-05-07T08:16:21;10.53;;;3.23;;
13708;SDS011;54933;51.908;7.730;2023-05-07T08:18:46;7.13;;;2.67;;
13708;SDS011;54933;51.908;7.730;2023-05-07T08:21:12;6.23;;;2.77;;
13708;SDS011;54933;51.908;7.730;2023-05-07T08:23:37;8.10;;;3.00;;
13708;SDS011;54933;51.908;7.730;2023-05-07T08:26:02;70.00;;;8.50;;
13708;SDS011;54933;51.908;7.730;2023-05-07T08:28:28;58.50;;;9.40;;
13708;SDS011;54933;51.908;7.730;2023-05-07T08:30:53;48.50;;;8.70;;
13708;SDS011;54933;51.908;7.730;2023-05-07T08:33:18;37.70;;;5.67;;
13708;SDS011;54933;51.908;7.730;2023-05-07T08:35:43;39.70;;;5.80;;
13708;SDS011;54933;51.908;7.730;2023-05-07T08:38:09;31.37;;;5.87;;
13708;SDS011;54933;51.908;7.730;2023-05-07T08:40:38;26.50;;;5.60;;
13708;SDS011;54933;51.908;7.730;2023-05-07T08:43:07;32.13;;;5.47;;
13708;SDS011;54933;51.908;7.730;2023-05-07T08:45:33;20.70;;;4.83;;
13708;SDS011;54933;51.908;7.730;2023-05-07T08:47:59;27.83;;;4.77;;
13708;SDS011;54933;51.908;7.730;2023-05-07T08:50:27;15.53;;;4.20;;
13708;SDS011;54933;51.908;7.730;2023-05-07T08:52:52;12.80;;;4.20;;
13708;SDS011;54933;51.908;7.730;2023-05-07T08:55:18;17.40;;;3.97;;
13708;SDS011;54933;51.908;7.730;2023-05-07T08:57:43;27.70;;;4.07;;
13708;SDS011;54933;51.908;7.730;2023-05-07T09:00:09;15.83;;;3.57;;
13708;SDS011;54933;51.908;7.730;2023-05-07T09:02:35;13.30;;;3.63;;
13708;SDS011;54933;51.908;7.730;2023-05-07T09:05:01;18.23;;;4.27;;
13708;SDS011;54933;51.908;7.730;2023-05-07T09:07:27;11.73;;;3.37;;
13708;SDS011;54933;51.908;7.730;2023-05-07T09:09:53;21.47;;;3.60;;
13708;SDS011;54933;51.908;7.730;2023-05-07T09:12:20;17.70;;;4.23;;
13708;SDS011;54933;51.908;7.730;2023-05-07T09:14:46;12.23;;;3.80;;
13708;SDS011;54933;51.908;7.730;2023-05-07T09:17:12;11.97;;;3.10;;
13708;SDS011;54933;51.908;7.730;2023-05-07T09:19:37;7.63;;;2.73;;
13708;SDS011;54933;51.908;7.730;2023-05-07T09:22:03;10.30;;;2.90;;
13708;SDS011;54933;51.908;7.730;2023-05-07T09:24:30;17.50;;;2.73;;
13708;SDS011;54933;51.908;7.730;2023-05-07T09:27:00;7.50;;;2.87;;
13708;SDS011;54933;51.908;7.730;2023-05-07T09:29:27;13.37;;;3.30;;
13708;SDS011;54933;51.908;7.730;2023-05-07T09:32:00;9.97;;;3.10;;
13708;SDS011;54933;51.908;7.730;2023-05-07T09:34:30;9.00;;;2.33;;
13708;SDS011;54933;51.908;7.730;2023-05-07T09:36:56;11.03;;;2.70;;
13708;SDS011;54933;51.908;7.730;2023-05-07T09:39:23;7.53;;;2.70;;
13708;SDS011;54933;51.908;7.730;2023-05-07T09:41:49;7.93;;;2.37;;
13708;SDS011;54933;51.908;7.730;2023-05-07T09:44:16;8.80;;;2.50;;
13708;SDS011;54933;51.908;7.730;2023-05-07T09:46:42;6.60;;;2.60;;
13708;SDS011;54933;51.908;7.730;2023-05-07T09:49:18;6.33;;;2.80;;
13708;SDS011;54933;51.908;7.730;2023-05-07T09:51:48;5.23;;;2.57;;
13708;SDS011;54933;51.908;7.730;2023-05-07T09:54:14;7.53;;;2.20;;
13708;SDS011;54933;51.908;7.730;2023-05-07T09:56:40;4.23;;;2.40;;
13708;SDS011;54933;51.908;7.730;2023-05-07T09:59:08;6.80;;;2.03;;
13708;SDS011;54933;51.908;7.730;2023-05-07T10:01:37;3.80;;;2.60;;
13708;SDS011;54933;51.908;7.730;2023-05-07T10:04:05;3.60;;;2.60;;
13708;SDS011;54933;51.908;7.730;2023-05-07T10:06:33;8.43;;;2.90;;
13708;SDS011;54933;51.908;7.730;2023-05-07T10:08:59;11.03;;;2.73;;
13708;SDS011;54933;51.908;7.730;2023-05-07T10:11:25;191.07;;;15.03;;
13708;SDS011;54933;51.908;7.730;2023-05-07T10:13:51;79.70;;;8.73;;
13708;SDS011;54933;51.908;7.730;2023-05-07T10:16:17;93.33;;;8.23;;
13708;SDS011;54933;51.908;7.730;2023-05-07T10:18:43;122.80;;;11.93;;
13708;SDS011;54933;51.908;7.730;2023-05-07T10:21:19;80.17;;;10.27;;
13708;SDS011;54933;51.908;7.730;2023-05-07T10:23:51;85.97;;;9.77;;
13708;SDS011;54933;51.908;7.730;2023-05-07T10:26:23;75.00;;;8.03;;
13708;SDS011;54933;51.908;7.730;2023-05-07T10:28:53;79.23;;;9.80;;
13708;SDS011;54933;51.908;7.730;2023-05-07T10:33:57;68.47;;;6.87;;
13708;SDS011;54933;51.908;7.730;2023-05-07T10:36:24;52.23;;;6.27;;
13708;SDS011;54933;51.908;7.730;2023-05-07T10:38:51;53.63;;;7.53;;
13708;SDS011;54933;51.908;7.730;2023-05-07T10:41:16;47.17;;;5.53;;
13708;SDS011;54933;51.908;7.730;2023-05-07T10:43:44;55.03;;;6.67;;
13708;SDS011;54933;51.908;7.730;2023-05-07T10:46:19;44.67;;;5.27;;
13708;SDS011;54933;51.908;7.730;2023-05-07T10:51:27;42.97;;;5.53;;
13708;SDS011;54933;51.908;7.730;2023-05-07T10:56:42;33.53;;;5.07;;
13708;SDS011;54933;51.908;7.730;2023-05-07T11:01:58;12.53;;;4.60;;
13708;SDS011;54933;51.908;7.730;2023-05-07T11:04:25;22.93;;;4.07;;
13708;SDS011;54933;51.908;7.730;2023-05-07T11:13:02;22.07;;;4.10;;
13708;SDS011;54933;51.908;7.730;2023-05-07T11:17:57;21.23;;;3.77;;
13708;SDS011;54933;51.908;7.730;2023-05-07T11:25:59;49.97;;;10.40;;
13708;SDS011;54933;51.908;7.730;2023-05-07T11:28:28;47.40;;;8.30;;
13708;SDS011;54933;51.908;7.730;2023-05-07T11:30:54;71.27;;;11.70;;
13708;SDS011;54933;51.908;7.730;2023-05-07T11:33:21;49.93;;;7.60;;
13708;SDS011;54933;51.908;7.730;2023-05-07T11:35:47;32.20;;;6.70;;
13708;SDS011;54933;51.908;7.730;2023-05-07T11:38:13;24.93;;;5.83;;
13708;SDS011;54933;51.908;7.730;2023-05-07T11:40:55;26.63;;;5.87;;
13708;SDS011;54933;51.908;7.730;2023-05-07T11:43:22;22.27;;;5.87;;
13708;SDS011;54933;51.908;7.730;2023-05-07T11:45:48;25.90;;;6.30;;
13708;SDS011;54933;51.908;7.730;2023-05-07T11:48:14;28.97;;;6.10;;
13708;SDS011;54933;51.908;7.730;2023-05-07T11:50:52;30.10;;;5.93;;
13708;SDS011;54933;51.908;7.730;2023-05-07T11:53:27;25.70;;;5.23;;
13708;SDS011;54933;51.908;7.730;2023-05-07T11:56:00;23.43;;;5.57;;
13708;SDS011;54933;51.908;7.730;2023-05-07T11:58:31;24.23;;;4.80;;
13708;SDS011;54933;51.908;7.730;2023-05-07T12:00:56;16.20;;;4.80;;
13708;SDS011;54933;51.908;7.730;2023-05-07T12:03:22;13.67;;;4.43;;
13708;SDS011;54933;51.908;7.730;2023-05-07T12:05:47;28.13;;;3.47;;
13708;SDS011;54933;51.908;7.730;2023-05-07T12:08:16;20.43;;;4.07;;
13708;SDS011;54933;51.908;7.730;2023-05-07T12:10:47;13.90;;;3.23;;
13708;SDS011;54933;51.908;7.730;2023-05-07T12:13:17;13.10;;;2.93;;
13708;SDS011;54933;51.908;7.730;2023-05-07T12:15:43;15.20;;;2.90;;
13708;SDS011;54933;51.908;7.730;2023-05-07T12:18:09;12.20;;;2.60;;
13708;SDS011;54933;51.908;7.730;2023-05-07T12:20:36;11.87;;;2.73;;
13708;SDS011;54933;51.908;7.730;2023-05-07T12:23:02;10.13;;;2.93;;
13708;SDS011;54933;51.908;7.730;2023-05-07T12:25:34;10.83;;;2.50;;
13708;SDS011;54933;51.908;7.730;2023-05-07T12:28:04;4.30;;;2.23;;
13708;SDS011;54933;51.908;7.730;2023-05-07T12:30:39;10.70;;;2.03;;
13708;SDS011;54933;51.908;7.730;2023-05-07T12:33:04;10.50;;;2.93;;
13708;SDS011;54933;51.908;7.730;2023-05-07T12:35:30;7.77;;;2.20;;
13708;SDS011;54933;51.908;7.730;2023-05-07T12:37:58;7.37;;;2.27;;
13708;SDS011;54933;51.908;7.730;2023-05-07T12:40:34;8.60;;;2.87;;
13708;SDS011;54933;51.908;7.730;2023-05-07T12:43:01;13.17;;;6.03;;
13708;SDS011;54933;51.908;7.730;2023-05-07T12:45:26;39.57;;;6.63;;
13708;SDS011;54933;51.908;7.730;2023-05-07T12:47:51;73.60;;;8.87;;
13708;SDS011;54933;51.908;7.730;2023-05-07T12:50:17;71.70;;;8.07;;
13708;SDS011;54933;51.908;7.730;2023-05-07T12:52:43;38.80;;;6.17;;
13708;SDS011;54933;51.908;7.730;2023-05-07T12:55:12;23.03;;;4.73;;
13708;SDS011;54933;51.908;7.730;2023-05-07T12:57:41;19.93;;;3.93;;
13708;SDS011;54933;51.908;7.730;2023-05-07T13:00:07;34.17;;;4.20;;
13708;SDS011;54933;51.908;7.730;2023-05-07T13:02:34;30.47;;;5.57;;
13708;SDS011;54933;51.908;7.730;2023-05-07T13:05:02;16.83;;;3.63;;
13708;SDS011;54933;51.908;7.730;2023-05-07T13:07:28;12.20;;;3.97;;
13708;SDS011;54933;51.908;7.730;2023-05-07T13:09:53;7.23;;;5.23;;
13708;SDS011;54933;51.908;7.730;2023-05-07T13:12:18;10.20;;;5.17;;
13708;SDS011;54933;51.908;7.730;2023-05-07T13:14:43;11.97;;;5.23;;
13708;SDS011;54933;51.908;7.730;2023-05-07T13:17:09;12.70;;;5.40;;
13708;SDS011;54933;51.908;7.730;2023-05-07T13:19:34;7.87;;;4.53;;
13708;SDS011;54933;51.908;7.730;2023-05-07T13:22:02;11.70;;;4.43;;
13708;SDS011;54933;51.908;7.730;2023-05-07T13:24:27;15.93;;;5.17;;
13708;SDS011;54933;51.908;7.730;2023-05-07T13:26:52;10.53;;;4.90;;
13708;SDS011;54933;51.908;7.730;2023-05-07T13:29:18;20.07;;;4.20;;
13708;SDS011;54933;51.908;7.730;2023-05-07T13:31:43;13.17;;;3.77;;
13708;SDS011;54933;51.908;7.730;2023-05-07T13:34:09;17.37;;;3.67;;
13708;SDS011;54933;51.908;7.730;2023-05-07T13:36:34;10.47;;;3.10;;
13708;SDS011;54933;51.908;7.730;2023-05-07T13:39:02;8.47;;;3.60;;
13708;SDS011;54933;51.908;7.730;2023-05-07T13:41:28;22.10;;;3.80;;
13708;SDS011;54933;51.908;7.730;2023-05-07T13:43:53;14.27;;;4.10;;
13708;SDS011;54933;51.908;7.730;2023-05-07T13:46:19;24.53;;;3.57;;
13708;SDS011;54933;51.908;7.730;2023-05-07T13:48:44;23.90;;;3.80;;
13708;SDS011;54933;51.908;7.730;2023-05-07T13:51:09;15.33;;;3.70;;
13708;SDS011;54933;51.908;7.730;2023-05-07T13:53:35;10.60;;;2.90;;
13708;SDS011;54933;51.908;7.730;2023-05-07T13:56:01;9.97;;;2.87;;
13708;SDS011;54933;51.908;7.730;2023-05-07T13:58:26;12.93;;;3.20;;
13708;SDS011;54933;51.908;7.730;2023-05-07T14:00:51;13.63;;;3.27;;
13708;SDS011;54933;51.908;7.730;2023-05-07T14:03:17;19.30;;;5.13;;
13708;SDS011;54933;51.908;7.730;2023-05-07T14:05:44;12.80;;;3.80;;
13708;SDS011;54933;51.908;7.730;2023-05-07T14:08:09;15.10;;;3.80;;
13708;SDS011;54933;51.908;7.730;2023-05-07T14:10:36;19.90;;;3.60;;
13708;SDS011;54933;51.908;7.730;2023-05-07T14:13:01;13.60;;;3.07;;
13708;SDS011;54933;51.908;7.730;2023-05-07T14:15:26;10.03;;;3.03;;
13708;SDS011;54933;51.908;7.730;2023-05-07T14:17:51;8.70;;;2.73;;
13708;SDS011;54933;51.908;7.730;2023-05-07T14:20:17;11.20;;;3.20;;
13708;SDS011;54933;51.908;7.730;2023-05-07T14:22:42;14.40;;;3.50;;
13708;SDS011;54933;51.908;7.730;2023-05-07T14:25:08;15.37;;;3.03;;
13708;SDS011;54933;51.908;7.730;2023-05-07T14:27:34;13.13;;;2.93;;
13708;SDS011;54933;51.908;7.730;2023-05-07T14:30:00;7.90;;;2.83;;
13708;SDS011;54933;51.908;7.730;2023-05-07T14:32:25;4.40;;;2.73;;
13708;SDS011;54933;51.908;7.730;2023-05-07T14:34:50;10.50;;;3.10;;
13708;SDS011;54933;51.908;7.730;2023-05-07T14:37:15;8.60;;;2.90;;
13708;SDS011;54933;51.908;7.730;2023-05-07T14:39:41;9.27;;;2.53;;
13708;SDS011;54933;51.908;7.730;2023-05-07T14:42:06;12.33;;;3.33;;
13708;SDS011;54933;51.908;7.730;2023-05-07T14:44:33;8.50;;;2.30;;
13708;SDS011;54933;51.908;7.730;2023-05-07T14:47:01;11.70;;;2.80;;
13708;SDS011;54933;51.908;7.730;2023-05-07T14:49:26;9.23;;;2.50;;
13708;SDS011;54933;51.908;7.730;2023-05-07T14:51:51;5.47;;;2.60;;
13708;SDS011;54933;51.908;7.730;2023-05-07T14:54:16;10.33;;;2.70;;
13708;SDS011;54933;51.908;7.730;2023-05-07T14:56:42;3.97;;;2.27;;
13708;SDS011;54933;51.908;7.730;2023-05-07T14:59:07;5.27;;;2.20;;
13708;SDS011;54933;51.908;7.730;2023-05-07T15:01:36;5.23;;;2.30;;